createdAt,value
2022-12-22T00:01:33.210Z,9.20
2022-12-22T00:04:40.406Z,9.20
2022-12-22T00:07:45.700Z,9.30
2022-12-22T00:10:50.989Z,9.30
2022-12-22T00:13:57.155Z,9.20
2022-12-22T00:17:02.297Z,9.30
2022-12-22T00:20:13.608Z,9.30
2022-12-22T00:23:21.437Z,9.20
2022-12-22T00:26:26.870Z,9.20
2022-12-22T00:29:32.772Z,9.30
2022-12-22T00:32:38.269Z,9.30
2022-12-22T00:35:45.299Z,9.20
2022-12-22T00:38:50.635Z,9.30
2022-12-22T00:41:56.088Z,9.30
2022-12-22T00:45:01.090Z,9.30
2022-12-22T00:48:06.660Z,9.10
2022-12-22T00:51:13.545Z,9.20
2022-12-22T00:54:19.188Z,9.20
2022-12-22T00:57:24.701Z,9.10
2022-12-22T01:00:33.820Z,9.10
2022-12-22T01:03:39.367Z,9.10
2022-12-22T01:06:48.553Z,9.10
2022-12-22T01:09:53.848Z,9.10
2022-12-22T01:12:59.722Z,9.10
2022-12-22T01:16:05.152Z,9.10
2022-12-22T01:19:10.458Z,9.10
2022-12-22T01:22:17.584Z,9.10
2022-12-22T01:25:28.055Z,9.00
2022-12-22T01:28:33.842Z,9.00
2022-12-22T01:31:48.194Z,8.90
2022-12-22T01:34:53.606Z,9.00
2022-12-22T01:38:00.172Z,9.00
2022-12-22T01:41:05.603Z,9.00
2022-12-22T01:44:11.003Z,9.00
2022-12-22T01:47:38.059Z,9.00
2022-12-22T01:50:45.465Z,9.00
2022-12-22T01:53:53.089Z,9.00
2022-12-22T01:56:58.983Z,9.10
2022-12-22T02:00:04.523Z,9.00
2022-12-22T02:03:16.663Z,9.00
2022-12-22T02:06:28.227Z,9.00
2022-12-22T02:09:45.467Z,8.90
2022-12-22T02:12:53.899Z,8.90
2022-12-22T02:16:02.303Z,8.90
2022-12-22T02:19:09.376Z,8.90
2022-12-22T02:22:17.772Z,9.00
2022-12-22T02:25:27.966Z,9.00
2022-12-22T02:28:35.051Z,9.00
2022-12-22T02:31:40.624Z,9.10
2022-12-22T02:34:45.635Z,9.00
2022-12-22T02:37:58.994Z,9.00
2022-12-22T02:41:09.294Z,9.00
2022-12-22T02:44:22.076Z,9.00
2022-12-22T02:47:29.788Z,9.10
2022-12-22T02:50:37.096Z,9.10
2022-12-22T02:53:43.044Z,9.10
2022-12-22T02:56:48.043Z,9.20
2022-12-22T02:59:55.077Z,9.20
2022-12-22T03:03:00.720Z,9.20
2022-12-22T03:06:05.877Z,9.20
2022-12-22T03:09:11.006Z,9.20
2022-12-22T03:12:16.075Z,8.30
2022-12-22T03:15:22.447Z,9.20
2022-12-22T03:18:29.273Z,9.20
2022-12-22T03:21:34.906Z,9.30
2022-12-22T03:24:39.865Z,9.30
2022-12-22T03:27:27.909Z,9.30
2022-12-22T03:30:16.930Z,8.10
2022-12-22T03:33:04.755Z,9.30
2022-12-22T03:35:52.685Z,9.20
2022-12-22T03:38:40.621Z,9.30
2022-12-22T03:41:46.057Z,9.30
2022-12-22T03:44:51.142Z,9.40
2022-12-22T03:47:40.539Z,9.30
2022-12-22T03:50:30.978Z,9.30
2022-12-22T03:53:19.127Z,9.10
2022-12-22T03:56:08.120Z,9.20
2022-12-22T03:58:56.266Z,9.20
2022-12-22T04:01:45.577Z,9.30
2022-12-22T04:04:34.747Z,9.20
2022-12-22T04:07:22.627Z,9.40
2022-12-22T04:10:28.496Z,9.30
2022-12-22T04:13:16.525Z,9.40
2022-12-22T04:16:04.582Z,9.30
2022-12-22T04:18:52.681Z,9.40
2022-12-22T04:21:41.394Z,9.40
2022-12-22T04:24:28.957Z,9.40
2022-12-22T04:27:17.710Z,9.50
2022-12-22T04:30:06.163Z,9.60
2022-12-22T04:32:54.116Z,9.60
2022-12-22T04:35:41.615Z,9.60
2022-12-22T04:38:30.956Z,9.60
2022-12-22T04:41:18.087Z,9.60
2022-12-22T04:44:06.166Z,9.70
2022-12-22T04:46:53.977Z,9.70
2022-12-22T04:49:41.955Z,9.80
2022-12-22T04:52:29.274Z,9.70
2022-12-22T04:55:17.930Z,9.70
2022-12-22T04:58:05.435Z,9.70
2022-12-22T05:00:52.836Z,9.70
2022-12-22T05:03:41.445Z,9.90
2022-12-22T05:06:29.436Z,9.70
2022-12-22T05:09:17.398Z,9.70
2022-12-22T05:12:27.404Z,9.70
2022-12-22T05:15:15.038Z,9.70
2022-12-22T05:18:03.799Z,9.80
2022-12-22T05:20:51.612Z,9.80
2022-12-22T05:23:39.673Z,9.90
2022-12-22T05:26:27.741Z,9.80
2022-12-22T05:29:17.332Z,9.80
2022-12-22T05:32:05.114Z,9.80
2022-12-22T05:34:52.657Z,9.80
2022-12-22T05:37:40.557Z,9.80
2022-12-22T05:40:28.090Z,9.70
2022-12-22T05:43:17.059Z,9.70
2022-12-22T05:46:06.850Z,11.00
2022-12-22T05:48:53.983Z,9.80
2022-12-22T05:51:41.384Z,11.40
2022-12-22T05:54:29.468Z,9.70
2022-12-22T05:57:17.401Z,9.80
2022-12-22T06:00:05.828Z,9.70
2022-12-22T06:03:01.107Z,9.70
2022-12-22T06:05:50.816Z,9.70
2022-12-22T06:08:38.779Z,9.70
2022-12-22T06:11:26.601Z,9.70
2022-12-22T06:14:14.677Z,9.70
2022-12-22T06:17:02.809Z,9.70
2022-12-22T06:19:52.354Z,9.70
2022-12-22T06:22:40.225Z,9.60
2022-12-22T06:25:28.073Z,9.60
2022-12-22T06:28:16.120Z,9.60
2022-12-22T06:31:04.212Z,9.60
2022-12-22T06:33:52.191Z,9.70
2022-12-22T06:36:41.553Z,9.60
2022-12-22T06:39:29.221Z,9.60
2022-12-22T06:42:33.760Z,9.60
2022-12-22T06:45:21.738Z,9.60
2022-12-22T06:48:11.033Z,9.60
2022-12-22T06:50:59.730Z,9.60
2022-12-22T06:53:48.875Z,9.50
2022-12-22T06:56:36.129Z,9.50
2022-12-22T06:59:24.243Z,9.50
2022-12-22T07:02:12.835Z,9.50
2022-12-22T07:05:01.389Z,9.40
2022-12-22T07:07:48.714Z,9.40
2022-12-22T07:10:54.901Z,9.40
2022-12-22T07:13:43.599Z,9.30
2022-12-22T07:16:31.596Z,9.30
2022-12-22T07:19:19.518Z,9.40
2022-12-22T07:22:07.080Z,9.30
2022-12-22T07:24:55.086Z,9.30
2022-12-22T07:27:44.554Z,9.30
2022-12-22T07:30:32.420Z,9.10
2022-12-22T07:33:21.016Z,9.20
2022-12-22T07:36:11.369Z,9.20
2022-12-22T07:38:59.368Z,9.20
2022-12-22T07:42:04.206Z,9.20
2022-12-22T07:44:53.635Z,9.20
2022-12-22T07:47:41.970Z,9.20
2022-12-22T07:50:28.946Z,9.10
2022-12-22T07:53:16.701Z,9.20
2022-12-22T07:56:06.094Z,9.20
2022-12-22T07:58:54.052Z,9.20
2022-12-22T08:01:43.136Z,9.10
2022-12-22T08:04:30.773Z,9.20
2022-12-22T08:07:19.654Z,9.10
2022-12-22T08:10:07.821Z,9.10
2022-12-22T08:12:55.317Z,9.00
2022-12-22T08:15:42.684Z,9.00
2022-12-22T08:18:31.576Z,9.10
2022-12-22T08:21:19.495Z,9.10
2022-12-22T08:24:07.674Z,9.00
2022-12-22T08:26:58.973Z,9.00
2022-12-22T08:29:48.229Z,9.00
2022-12-22T08:32:36.111Z,9.00
2022-12-22T08:35:25.006Z,9.00
2022-12-22T08:38:14.193Z,9.00
2022-12-22T08:41:01.411Z,9.00
2022-12-22T08:43:49.550Z,8.90
2022-12-22T08:46:37.501Z,8.90
2022-12-22T08:49:25.269Z,8.80
2022-12-22T08:52:18.842Z,8.80
2022-12-22T08:55:07.686Z,8.80
2022-12-22T08:57:56.405Z,8.70
2022-12-22T09:00:44.249Z,8.70
2022-12-22T09:03:32.536Z,8.60
2022-12-22T09:06:26.775Z,8.60
2022-12-22T09:09:17.019Z,8.60
2022-12-22T09:12:05.390Z,8.60
2022-12-22T09:14:53.022Z,8.70
2022-12-22T09:17:40.147Z,8.70
2022-12-22T09:20:27.689Z,8.80
2022-12-22T09:23:15.203Z,8.80
2022-12-22T09:26:09.959Z,8.90
2022-12-22T09:28:57.795Z,9.00
2022-12-22T09:31:45.313Z,9.10
2022-12-22T09:34:32.337Z,9.40
2022-12-22T09:37:20.365Z,9.10
2022-12-22T09:40:08.332Z,9.10
2022-12-22T09:42:59.116Z,8.90
2022-12-22T09:45:47.141Z,8.90
2022-12-22T09:48:36.202Z,8.90
2022-12-22T09:51:27.477Z,8.80
2022-12-22T09:54:16.091Z,8.90
2022-12-22T09:57:03.183Z,8.90
2022-12-22T09:59:52.538Z,9.00
2022-12-22T10:02:45.307Z,9.10
2022-12-22T10:05:38.665Z,9.10
2022-12-22T10:08:28.626Z,9.10
2022-12-22T10:11:17.613Z,9.10
2022-12-22T10:14:05.155Z,9.20
2022-12-22T10:17:13.576Z,9.20
2022-12-22T10:20:09.195Z,9.30
2022-12-22T10:22:58.897Z,9.40
2022-12-22T10:26:27.545Z,9.30
2022-12-22T10:29:10.477Z,9.30
2022-12-22T10:32:02.278Z,9.30
2022-12-22T10:35:00.877Z,9.20
2022-12-22T10:37:48.137Z,9.20
2022-12-22T10:40:43.303Z,9.20
2022-12-22T10:43:32.982Z,9.20
2022-12-22T10:46:21.587Z,9.30
2022-12-22T10:52:11.396Z,9.20
2022-12-22T10:55:13.497Z,9.10
2022-12-22T10:58:09.882Z,9.00
2022-12-22T11:01:02.234Z,9.10
2022-12-22T11:03:49.642Z,9.10
2022-12-22T11:06:44.826Z,9.20
2022-12-22T11:09:35.550Z,9.10
2022-12-22T11:12:37.473Z,9.00
2022-12-22T11:15:29.908Z,8.90
2022-12-22T11:18:27.649Z,8.90
2022-12-22T11:21:24.094Z,8.80
2022-12-22T11:24:16.657Z,8.80
2022-12-22T11:27:14.060Z,8.90
2022-12-22T11:30:08.914Z,8.90
2022-12-22T11:33:05.104Z,8.90
2022-12-22T11:35:58.077Z,9.10
2022-12-22T11:38:49.122Z,9.00
2022-12-22T11:41:43.763Z,9.10
2022-12-22T11:44:48.625Z,9.20
2022-12-22T11:47:40.048Z,9.30
2022-12-22T11:51:01.336Z,9.40
2022-12-22T11:54:01.788Z,9.30
2022-12-22T11:56:57.569Z,9.30
2022-12-22T11:59:52.571Z,9.20
2022-12-22T12:02:58.148Z,9.20
2022-12-22T12:06:13.508Z,9.20
2022-12-22T12:09:07.966Z,9.20
2022-12-22T12:12:00.634Z,9.30
2022-12-22T12:14:55.267Z,9.30
2022-12-22T12:17:49.297Z,9.40
2022-12-22T12:20:51.258Z,9.50
2022-12-22T12:23:49.443Z,9.50
2022-12-22T12:26:41.444Z,9.50
2022-12-22T12:29:30.113Z,8.60
2022-12-22T12:32:22.231Z,9.50
2022-12-22T12:35:19.624Z,9.50
2022-12-22T12:38:20.516Z,9.40
2022-12-22T12:41:20.829Z,9.50
2022-12-22T12:44:12.955Z,9.40
2022-12-22T12:47:09.588Z,9.50
2022-12-22T12:50:18.594Z,9.50
2022-12-22T12:53:08.925Z,9.50
2022-12-22T12:56:01.118Z,9.40
2022-12-22T12:58:53.740Z,9.30
2022-12-22T13:01:57.191Z,9.30
2022-12-22T13:05:01.902Z,9.30
2022-12-22T13:08:08.089Z,9.40
2022-12-22T13:11:52.790Z,9.40
2022-12-22T13:14:49.235Z,9.40
2022-12-22T13:17:51.108Z,9.40
2022-12-22T13:20:39.069Z,9.30
2022-12-22T13:23:30.574Z,9.30
2022-12-22T13:26:19.355Z,9.30
2022-12-22T13:29:10.180Z,9.30
2022-12-22T13:32:00.297Z,9.20
2022-12-22T13:38:02.018Z,9.10
2022-12-22T13:40:50.290Z,9.00
2022-12-22T13:43:38.733Z,8.90
2022-12-22T13:46:26.595Z,8.90
2022-12-22T13:49:30.212Z,8.90
2022-12-22T13:52:27.177Z,8.80
2022-12-22T13:55:16.227Z,8.80
2022-12-22T13:58:06.563Z,8.90
2022-12-22T14:01:05.500Z,8.90
2022-12-22T14:04:00.747Z,8.90
2022-12-22T14:06:48.562Z,8.90
2022-12-22T14:09:37.268Z,8.90
2022-12-22T14:12:25.492Z,9.00
2022-12-22T14:15:17.174Z,9.00
2022-12-22T14:18:05.799Z,8.90
2022-12-22T14:20:53.968Z,9.00
2022-12-22T14:23:42.800Z,9.00
2022-12-22T14:26:31.943Z,9.60
2022-12-22T14:29:21.702Z,9.10
2022-12-22T14:32:10.433Z,9.10
2022-12-22T14:34:58.878Z,9.10
2022-12-22T14:37:46.495Z,9.10
2022-12-22T14:40:35.308Z,9.20
2022-12-22T14:43:31.795Z,9.20
2022-12-22T14:46:19.679Z,9.20
2022-12-22T14:49:07.247Z,9.20
2022-12-22T14:52:00.784Z,9.20
2022-12-22T14:54:50.769Z,9.20
2022-12-22T14:57:39.057Z,9.20
2022-12-22T15:00:36.196Z,9.20
2022-12-22T15:03:31.289Z,9.30
2022-12-22T15:06:32.380Z,9.30
2022-12-22T15:10:12.521Z,9.40
2022-12-22T15:12:35.291Z,9.40
2022-12-22T15:15:23.865Z,10.00
2022-12-22T15:18:14.724Z,9.40
2022-12-22T15:21:03.386Z,9.50
2022-12-22T15:23:50.623Z,9.50
2022-12-22T15:26:38.670Z,9.50
2022-12-22T15:29:26.551Z,9.50
2022-12-22T15:32:15.143Z,9.60
2022-12-22T15:35:04.460Z,9.60
2022-12-22T15:37:51.840Z,9.60
2022-12-22T15:40:39.274Z,9.60
2022-12-22T15:43:56.721Z,9.60
2022-12-22T15:46:35.363Z,9.60
2022-12-22T15:49:24.291Z,9.60
2022-12-22T15:52:14.910Z,9.60
2022-12-22T15:55:02.099Z,9.60
2022-12-22T15:57:50.726Z,9.70
2022-12-22T16:00:38.969Z,9.70
2022-12-22T16:03:29.045Z,9.70
2022-12-22T16:06:19.064Z,9.70
2022-12-22T16:09:12.218Z,9.70
2022-12-22T16:12:00.139Z,9.80
2022-12-22T16:14:50.710Z,9.80
2022-12-22T16:17:38.273Z,9.80
2022-12-22T16:20:26.752Z,9.80
2022-12-22T16:23:15.675Z,9.80
2022-12-22T16:26:05.310Z,9.80
2022-12-22T16:28:52.636Z,9.80
2022-12-22T16:31:40.328Z,9.80
2022-12-22T16:34:27.745Z,9.80
2022-12-22T16:37:15.812Z,11.00
2022-12-22T16:40:04.047Z,9.90
2022-12-22T16:46:08.674Z,9.90
2022-12-22T16:48:58.090Z,9.90
2022-12-22T16:51:47.317Z,9.90
2022-12-22T16:54:34.599Z,9.90
2022-12-22T16:57:22.268Z,9.80
2022-12-22T17:00:17.749Z,9.90
2022-12-22T17:03:07.845Z,9.90
2022-12-22T17:05:58.691Z,9.90
2022-12-22T17:08:47.649Z,10.00
2022-12-22T17:11:37.430Z,10.00
2022-12-22T17:14:29.338Z,10.00
2022-12-22T17:17:19.276Z,10.00
2022-12-22T17:20:07.497Z,10.00
2022-12-22T17:22:56.690Z,10.00
2022-12-22T17:25:44.690Z,10.00
2022-12-22T17:28:33.346Z,10.00
2022-12-22T17:31:22.377Z,10.00
2022-12-22T17:34:16.590Z,10.10
2022-12-22T17:37:04.493Z,10.00
2022-12-22T17:39:53.567Z,10.00
2022-12-22T17:42:40.795Z,10.00
2022-12-22T17:45:28.805Z,10.00
2022-12-22T17:48:16.906Z,10.10
2022-12-22T17:51:05.868Z,10.10
2022-12-22T17:53:53.186Z,10.10
2022-12-22T17:56:40.813Z,10.10
2022-12-22T17:59:28.312Z,10.10
2022-12-22T18:02:20.354Z,10.10
2022-12-22T18:05:07.845Z,10.20
2022-12-22T18:07:58.868Z,10.10
2022-12-22T18:10:47.436Z,10.10
2022-12-22T18:13:35.696Z,10.10
2022-12-22T18:16:23.160Z,10.10
2022-12-22T18:19:10.571Z,10.10
2022-12-22T18:21:57.858Z,10.10
2022-12-22T18:24:47.433Z,10.10
2022-12-22T18:27:35.126Z,10.10
2022-12-22T18:30:24.151Z,10.10
2022-12-22T18:33:12.760Z,10.10
2022-12-22T18:36:01.886Z,10.10
2022-12-22T18:38:50.655Z,10.00
2022-12-22T18:41:39.847Z,10.00
2022-12-22T18:44:27.687Z,10.00
2022-12-22T18:47:15.831Z,10.00
2022-12-22T18:50:05.583Z,10.00
2022-12-22T18:52:54.034Z,10.00
2022-12-22T18:55:41.721Z,10.00
2022-12-22T18:58:31.444Z,10.40
2022-12-22T19:01:21.019Z,10.00
2022-12-22T19:04:08.497Z,9.90
2022-12-22T19:06:56.467Z,9.90
2022-12-22T19:09:44.605Z,10.00
2022-12-22T19:12:32.671Z,9.90
2022-12-22T19:15:23.946Z,10.00
2022-12-22T19:18:18.712Z,10.10
2022-12-22T19:21:13.099Z,9.90
2022-12-22T19:24:00.400Z,9.90
2022-12-22T19:26:48.002Z,9.90
2022-12-22T19:29:35.773Z,9.90
2022-12-22T19:32:26.263Z,9.90
2022-12-22T19:35:15.398Z,9.90
2022-12-22T19:38:16.378Z,9.80
2022-12-22T19:41:05.213Z,9.80
2022-12-22T19:43:53.269Z,9.80
2022-12-22T19:46:41.379Z,9.70
2022-12-22T19:49:30.933Z,9.70
2022-12-22T19:52:18.651Z,9.80
2022-12-22T19:55:06.508Z,9.60
2022-12-22T19:57:53.925Z,9.80
2022-12-22T20:00:41.871Z,9.70
2022-12-22T20:03:29.931Z,9.80
2022-12-22T20:06:19.241Z,9.70
2022-12-22T20:09:06.665Z,9.70
2022-12-22T20:11:54.364Z,9.70
2022-12-22T20:14:41.952Z,11.10
2022-12-22T20:17:29.483Z,9.70
2022-12-22T20:20:18.182Z,9.60
2022-12-22T20:23:12.622Z,9.70
2022-12-22T20:26:04.182Z,9.60
2022-12-22T20:28:52.672Z,9.60
2022-12-22T20:31:40.584Z,9.60
2022-12-22T20:34:27.713Z,9.40
2022-12-22T20:37:15.947Z,9.40
2022-12-22T20:40:05.267Z,9.40
2022-12-22T20:42:53.627Z,9.40
2022-12-22T20:45:42.228Z,9.20
2022-12-22T20:48:35.599Z,9.20
2022-12-22T20:51:24.619Z,9.20
2022-12-22T20:54:14.053Z,9.30
2022-12-22T20:57:02.980Z,9.30
2022-12-22T20:59:55.945Z,9.40
2022-12-22T21:02:44.709Z,9.80
2022-12-22T21:05:32.782Z,9.50
2022-12-22T21:08:22.202Z,9.40
2022-12-22T21:11:10.590Z,9.50
2022-12-22T21:14:00.153Z,9.40
2022-12-22T21:16:47.666Z,9.50
2022-12-22T21:19:35.575Z,9.40
2022-12-22T21:22:23.352Z,9.70
2022-12-22T21:25:11.229Z,9.60
2022-12-22T21:27:58.664Z,9.50
2022-12-22T21:30:47.404Z,9.50
2022-12-22T21:33:34.799Z,9.60
2022-12-22T21:36:24.378Z,9.60
2022-12-22T21:39:17.092Z,9.60
2022-12-22T21:42:05.357Z,9.60
2022-12-22T21:44:53.325Z,9.60
2022-12-22T21:47:42.736Z,9.50
2022-12-22T21:50:31.874Z,9.60
2022-12-22T21:53:22.315Z,9.60
2022-12-22T21:56:17.427Z,9.60
2022-12-22T21:59:05.207Z,9.60
2022-12-22T22:01:53.953Z,9.60
2022-12-22T22:04:49.955Z,9.60
2022-12-22T22:07:41.226Z,9.40
2022-12-22T22:10:30.579Z,9.50
2022-12-22T22:13:18.720Z,9.70
2022-12-22T22:16:06.347Z,9.40
2022-12-22T22:18:54.553Z,9.60
2022-12-22T22:21:43.969Z,9.40
2022-12-22T22:24:31.904Z,9.40
2022-12-22T22:27:19.333Z,9.40
2022-12-22T22:30:07.545Z,9.30
2022-12-22T22:32:56.539Z,9.50
2022-12-22T22:35:43.746Z,9.50
2022-12-22T22:38:33.357Z,9.40
2022-12-22T22:41:21.467Z,9.50
2022-12-22T22:44:08.969Z,9.50
2022-12-22T22:46:57.108Z,9.50
2022-12-22T22:49:44.635Z,9.50
2022-12-22T22:52:32.030Z,9.40
2022-12-22T22:55:20.902Z,9.40
2022-12-22T22:58:11.475Z,9.40
2022-12-22T23:01:04.971Z,9.50
2022-12-22T23:03:52.604Z,9.60
2022-12-22T23:06:41.701Z,9.60
2022-12-22T23:09:29.443Z,9.70
2022-12-22T23:12:18.252Z,9.70
2022-12-22T23:15:05.933Z,9.80
2022-12-22T23:17:53.175Z,9.80
2022-12-22T23:20:45.217Z,9.80
2022-12-22T23:23:33.693Z,9.80
2022-12-22T23:26:21.813Z,9.80
2022-12-22T23:29:11.040Z,9.90
2022-12-22T23:31:58.582Z,9.90
2022-12-22T23:34:46.168Z,9.80
2022-12-22T23:37:33.489Z,9.90
2022-12-22T23:43:28.841Z,9.90
2022-12-22T23:46:18.931Z,9.90
2022-12-22T23:49:07.692Z,10.00
2022-12-22T23:51:55.303Z,9.90
2022-12-22T23:54:42.751Z,9.90
2022-12-22T23:57:33.685Z,9.90
